Time;durP1;ratioP1;P1;durP2;ratioP2;P2;SDS_P1;SDS_P2;PMS_P1;PMS_P2;Temp;Humidity;BMP_temperature;BMP_pressure;BME280_temperature;BME280_humidity;BME280_pressure;Samples;Min_cycle;Max_cycle;Signal;HPM_P1;HPM_P2
2023/10/19 00:00:44;;;;;;;8.70;5.75;;;;;;;;;;5108119;28;20035;-61
2023/10/19 00:03:11;;;;;;;9.15;5.97;;;;;;;;;;5106802;27;20048;-61
2023/10/19 00:05:37;;;;;;;8.30;5.85;;;;;;;;;;5105535;28;20040;-61
2023/10/19 00:08:23;;;;;;;8.98;6.20;;;;;;;;;;5099760;28;20077;-60
2023/10/19 00:11:01;;;;;;;8.57;5.18;;;;;;;;;;5095370;28;20519;-61
2023/10/19 00:13:28;;;;;;;9.07;6.40;;;;;;;;;;5108148;27;20127;-61
2023/10/19 00:15:57;;;;;;;8.00;6.05;;;;;;;;;;5118987;27;20194;-61
2023/10/19 00:18:24;;;;;;;11.85;5.65;;;;;;;;;;5109436;27;20333;-62
2023/10/19 00:20:52;;;;;;;10.73;7.13;;;;;;;;;;5111225;27;20047;-61
2023/10/19 00:23:24;;;;;;;9.18;6.22;;;;;;;;;;5086274;28;20099;-61
2023/10/19 00:25:54;;;;;;;10.03;6.13;;;;;;;;;;5109590;28;20455;-61
2023/10/19 00:28:22;;;;;;;8.48;5.75;;;;;;;;;;5108517;28;20044;-61
2023/10/19 00:30:51;;;;;;;7.63;5.90;;;;;;;;;;5108633;27;20105;-62
2023/10/19 00:33:19;;;;;;;8.10;5.63;;;;;;;;;;5119356;27;20048;-61
2023/10/19 00:41:13;;;;;;;8.48;5.82;;;;;;;;;;5108750;28;20074;-61
2023/10/19 00:43:44;;;;;;;9.30;6.07;;;;;;;;;;5111332;28;20039;-61
2023/10/19 00:46:20;;;;;;;10.07;7.25;;;;;;;;;;5109247;27;20093;-62
2023/10/19 00:48:50;;;;;;;8.98;6.40;;;;;;;;;;5102878;27;20047;-61
2023/10/19 00:52:02;;;;;;;8.98;6.43;;;;;;;;;;5108518;27;20549;-61
2023/10/19 00:55:15;;;;;;;11.57;6.65;;;;;;;;;;5090575;28;20090;-61
2023/10/19 00:57:19;;;;;;;7.47;5.40;;;;;;;;;;5082263;28;20055;-61
2023/10/19 01:00:11;;;;;;;10.40;6.78;;;;;;;;;;5109782;28;20063;-61
2023/10/19 01:02:47;;;;;;;9.40;7.85;;;;;;;;;;5077466;28;20044;-61
2023/10/19 01:05:13;;;;;;;9.52;7.00;;;;;;;;;;5107542;28;20055;-61
2023/10/19 01:07:44;;;;;;;9.57;6.32;;;;;;;;;;5097707;28;20101;-61
2023/10/19 01:10:12;;;;;;;9.35;6.68;;;;;;;;;;5074851;28;20062;-59
2023/10/19 01:12:41;;;;;;;10.48;6.20;;;;;;;;;;5091036;28;20073;-61
2023/10/19 01:15:07;;;;;;;9.63;7.35;;;;;;;;;;5115815;27;20031;-61
2023/10/19 01:17:38;;;;;;;11.27;6.63;;;;;;;;;;5112603;27;20406;-61
2023/10/19 01:20:19;;;;;;;12.15;6.97;;;;;;;;;;5104334;28;20402;-61
2023/10/19 01:25:59;;;;;;;11.35;6.53;;;;;;;;;;5093344;28;20111;-61
2023/10/19 01:28:43;;;;;;;10.55;6.90;;;;;;;;;;5094767;28;20051;-61
2023/10/19 01:33:48;;;;;;;8.95;6.68;;;;;;;;;;5081179;28;20443;-60
2023/10/19 01:36:14;;;;;;;9.15;6.82;;;;;;;;;;5106100;28;20103;-60
2023/10/19 01:38:41;;;;;;;9.32;7.20;;;;;;;;;;5096429;28;20145;-60
2023/10/19 01:41:13;;;;;;;8.27;7.18;;;;;;;;;;5109162;28;20436;-60
2023/10/19 01:43:43;;;;;;;10.88;8.30;;;;;;;;;;5109839;28;20194;-60
2023/10/19 01:46:13;;;;;;;9.93;7.20;;;;;;;;;;5107961;28;20069;-60
2023/10/19 01:48:44;;;;;;;9.85;7.00;;;;;;;;;;5085036;28;20503;-60
2023/10/19 01:51:13;;;;;;;9.23;6.93;;;;;;;;;;5107118;28;20044;-60
2023/10/19 01:53:47;;;;;;;8.68;6.38;;;;;;;;;;5104161;28;20054;-60
2023/10/19 01:56:14;;;;;;;8.68;6.93;;;;;;;;;;5109032;28;20097;-60
2023/10/19 01:58:41;;;;;;;8.20;6.82;;;;;;;;;;5103154;27;20337;-60
2023/10/19 02:01:30;;;;;;;11.52;7.78;;;;;;;;;;5102213;28;20088;-60
2023/10/19 02:03:58;;;;;;;9.38;6.60;;;;;;;;;;5096501;27;20104;-60
2023/10/19 02:06:38;;;;;;;8.57;6.97;;;;;;;;;;5106399;28;20471;-60
2023/10/19 02:09:22;;;;;;;11.60;8.02;;;;;;;;;;5104835;28;20043;-60
2023/10/19 02:11:52;;;;;;;9.38;7.10;;;;;;;;;;5090912;28;20151;-60
2023/10/19 02:14:18;;;;;;;8.63;6.85;;;;;;;;;;5103162;27;20528;-60
2023/10/19 02:16:52;;;;;;;8.70;6.35;;;;;;;;;;5101620;27;20110;-60
2023/10/19 02:19:22;;;;;;;9.93;7.20;;;;;;;;;;5111793;27;20044;-60
2023/10/19 02:21:49;;;;;;;8.57;6.75;;;;;;;;;;5107160;28;20679;-60
2023/10/19 02:24:15;;;;;;;10.45;7.43;;;;;;;;;;5104381;28;20049;-61
2023/10/19 02:26:42;;;;;;;9.13;6.75;;;;;;;;;;5094643;28;20040;-61
2023/10/19 02:29:09;;;;;;;8.43;6.18;;;;;;;;;;5105205;28;20046;-61
2023/10/19 02:31:37;;;;;;;8.82;6.47;;;;;;;;;;5076715;28;20163;-61
2023/10/19 02:34:04;;;;;;;13.38;6.28;;;;;;;;;;5104012;28;20056;-61
2023/10/19 02:36:32;;;;;;;8.63;6.55;;;;;;;;;;5091329;28;20040;-61
2023/10/19 02:38:59;;;;;;;10.68;6.55;;;;;;;;;;5104251;28;20071;-61
2023/10/19 02:41:26;;;;;;;9.57;6.25;;;;;;;;;;5098232;28;20040;-60
2023/10/19 02:46:29;;;;;;;8.80;6.00;;;;;;;;;;5099290;28;20059;-60
2023/10/19 02:48:56;;;;;;;8.65;5.93;;;;;;;;;;5108306;27;20035;-61
2023/10/19 02:51:22;;;;;;;7.18;5.40;;;;;;;;;;5096966;28;20066;-61
2023/10/19 02:53:48;;;;;;;7.20;5.15;;;;;;;;;;5076675;28;20036;-61
2023/10/19 02:56:19;;;;;;;7.00;4.88;;;;;;;;;;5103553;28;20047;-61
2023/10/19 02:58:48;;;;;;;8.02;4.68;;;;;;;;;;5095859;28;20052;-61
2023/10/19 03:01:21;;;;;;;6.97;5.05;;;;;;;;;;5100676;28;20180;-61
2023/10/19 03:03:49;;;;;;;6.13;4.75;;;;;;;;;;5102097;27;20114;-61
2023/10/19 03:06:19;;;;;;;5.65;4.13;;;;;;;;;;5080264;28;20059;-61
2023/10/19 03:08:46;;;;;;;7.18;4.28;;;;;;;;;;5096302;28;20345;-61
2023/10/19 03:11:13;;;;;;;6.65;4.35;;;;;;;;;;5092578;28;20391;-61
2023/10/19 03:13:40;;;;;;;6.25;4.22;;;;;;;;;;5105044;28;20155;-61
2023/10/19 03:16:09;;;;;;;6.22;4.25;;;;;;;;;;5096555;28;20039;-61
2023/10/19 03:18:38;;;;;;;5.55;3.70;;;;;;;;;;5102089;28;20035;-61
2023/10/19 03:21:05;;;;;;;4.65;3.63;;;;;;;;;;5110077;28;20056;-61
2023/10/19 03:23:34;;;;;;;4.85;3.20;;;;;;;;;;5107600;28;20066;-61
2023/10/19 03:28:27;;;;;;;5.18;3.40;;;;;;;;;;5091021;28;20063;-61
2023/10/19 03:30:55;;;;;;;4.90;3.63;;;;;;;;;;5077403;28;20140;-61
2023/10/19 03:33:26;;;;;;;4.68;3.78;;;;;;;;;;5103823;28;20101;-61
2023/10/19 03:35:53;;;;;;;5.32;3.55;;;;;;;;;;5101668;28;20110;-61
2023/10/19 03:38:22;;;;;;;4.93;3.20;;;;;;;;;;5072857;28;20259;-61
2023/10/19 03:40:58;;;;;;;3.78;3.00;;;;;;;;;;5083745;28;20032;-61
2023/10/19 03:43:27;;;;;;;4.93;3.22;;;;;;;;;;5108469;28;20395;-61
2023/10/19 03:45:54;;;;;;;3.63;2.70;;;;;;;;;;5101454;28;20043;-61
2023/10/19 03:48:29;;;;;;;4.00;3.00;;;;;;;;;;5115563;28;20044;-60
2023/10/19 03:50:56;;;;;;;3.80;2.30;;;;;;;;;;5105449;28;20042;-61
2023/10/19 03:53:22;;;;;;;4.40;3.08;;;;;;;;;;5104129;28;20050;-61
2023/10/19 03:55:54;;;;;;;3.15;2.45;;;;;;;;;;5098323;28;20032;-61
2023/10/19 03:58:20;;;;;;;3.30;2.50;;;;;;;;;;5077018;28;20055;-60
2023/10/19 04:00:50;;;;;;;4.25;2.88;;;;;;;;;;5104079;28;20169;-61
2023/10/19 04:03:24;;;;;;;2.75;2.17;;;;;;;;;;5106899;27;20051;-61
2023/10/19 04:05:51;;;;;;;3.03;2.10;;;;;;;;;;5112100;28;20051;-61
2023/10/19 04:08:20;;;;;;;3.65;2.10;;;;;;;;;;5098113;28;20071;-61
2023/10/19 04:13:32;;;;;;;3.92;2.22;;;;;;;;;;5102961;27;20046;-61
2023/10/19 04:15:58;;;;;;;3.55;2.45;;;;;;;;;;5100972;28;20038;-61
2023/10/19 04:18:25;;;;;;;3.28;2.22;;;;;;;;;;5115689;27;20506;-61
2023/10/19 04:20:55;;;;;;;2.80;2.00;;;;;;;;;;5110636;27;20146;-61
2023/10/19 04:23:21;;;;;;;2.53;1.80;;;;;;;;;;5110795;28;20055;-61
2023/10/19 04:25:48;;;;;;;4.22;2.15;;;;;;;;;;5103783;28;20511;-61
2023/10/19 04:28:14;;;;;;;2.50;2.00;;;;;;;;;;5105724;28;20467;-61
2023/10/19 04:30:41;;;;;;;3.45;1.85;;;;;;;;;;5105170;28;20065;-61
2023/10/19 04:33:10;;;;;;;4.10;2.30;;;;;;;;;;5084529;28;20572;-61
2023/10/19 04:35:37;;;;;;;3.83;1.90;;;;;;;;;;5100293;27;20134;-61
2023/10/19 04:38:08;;;;;;;2.50;1.88;;;;;;;;;;5107770;28;20073;-61
2023/10/19 04:40:35;;;;;;;3.88;2.20;;;;;;;;;;5094874;28;20040;-60
2023/10/19 04:43:06;;;;;;;3.47;2.50;;;;;;;;;;5110360;28;20035;-61
2023/10/19 04:45:32;;;;;;;2.80;1.90;;;;;;;;;;5099007;28;20040;-61
2023/10/19 04:47:58;;;;;;;3.55;2.15;;;;;;;;;;5098326;27;20046;-61
2023/10/19 04:50:24;;;;;;;2.13;1.52;;;;;;;;;;5098612;28;20035;-61
2023/10/19 04:52:50;;;;;;;3.90;2.13;;;;;;;;;;5107585;28;20047;-60
2023/10/19 04:55:16;;;;;;;3.08;1.83;;;;;;;;;;5088798;28;20399;-61
2023/10/19 04:57:42;;;;;;;3.20;1.98;;;;;;;;;;5100490;28;20114;-61
2023/10/19 05:00:13;;;;;;;2.90;1.83;;;;;;;;;;5100377;28;20502;-61
2023/10/19 05:02:39;;;;;;;4.20;1.73;;;;;;;;;;5104815;27;20538;-61
2023/10/19 05:05:05;;;;;;;2.78;1.85;;;;;;;;;;5102345;28;20027;-61
2023/10/19 05:07:33;;;;;;;2.83;1.80;;;;;;;;;;5090530;28;20023;-61
2023/10/19 05:09:59;;;;;;;2.47;1.65;;;;;;;;;;5110101;28;20100;-61
2023/10/19 05:12:25;;;;;;;3.60;2.13;;;;;;;;;;5101644;28;20033;-61
2023/10/19 05:14:51;;;;;;;3.53;2.20;;;;;;;;;;5086940;28;20480;-61
2023/10/19 05:17:21;;;;;;;3.40;1.77;;;;;;;;;;5105912;27;20038;-61
2023/10/19 05:19:47;;;;;;;2.70;2.05;;;;;;;;;;5097980;28;20036;-61
2023/10/19 05:22:13;;;;;;;3.53;1.90;;;;;;;;;;5108580;28;20499;-60
2023/10/19 05:24:39;;;;;;;2.10;1.50;;;;;;;;;;5109110;28;20036;-61
2023/10/19 05:27:05;;;;;;;1.98;1.48;;;;;;;;;;5087488;28;20044;-61
2023/10/19 05:29:35;;;;;;;3.40;1.60;;;;;;;;;;5108646;28;20069;-61
2023/10/19 05:32:03;;;;;;;3.28;2.28;;;;;;;;;;5097067;28;20058;-60
2023/10/19 05:34:36;;;;;;;2.00;1.35;;;;;;;;;;5101223;28;20054;-61
2023/10/19 05:37:02;;;;;;;2.72;1.45;;;;;;;;;;5108920;28;20711;-60
2023/10/19 05:39:33;;;;;;;3.08;1.83;;;;;;;;;;5108330;28;20027;-61
2023/10/19 05:42:02;;;;;;;2.60;1.60;;;;;;;;;;5108527;28;20168;-61
2023/10/19 05:44:31;;;;;;;3.30;1.70;;;;;;;;;;5108106;28;20047;-61
2023/10/19 05:46:58;;;;;;;1.60;1.15;;;;;;;;;;5116156;27;20047;-61
2023/10/19 05:49:24;;;;;;;3.10;1.38;;;;;;;;;;5107644;28;20131;-61
2023/10/19 05:51:51;;;;;;;2.90;1.60;;;;;;;;;;5104278;28;20110;-62
2023/10/19 05:54:17;;;;;;;1.80;1.02;;;;;;;;;;5105258;28;20043;-60
2023/10/19 05:56:43;;;;;;;2.58;1.73;;;;;;;;;;5088081;28;20126;-61
2023/10/19 05:59:10;;;;;;;1.67;1.45;;;;;;;;;;5100788;28;20158;-61
2023/10/19 06:01:41;;;;;;;1.38;1.20;;;;;;;;;;5096851;28;20616;-61
2023/10/19 06:04:07;;;;;;;1.42;1.00;;;;;;;;;;5106573;28;20195;-61
2023/10/19 06:06:33;;;;;;;1.98;1.35;;;;;;;;;;5094547;28;20074;-60
2023/10/19 06:09:00;;;;;;;1.55;1.20;;;;;;;;;;5102186;28;20510;-61
2023/10/19 06:11:32;;;;;;;3.13;1.48;;;;;;;;;;5101762;27;20407;-60
2023/10/19 06:13:59;;;;;;;1.80;1.35;;;;;;;;;;5079971;27;20407;-61
2023/10/19 06:16:25;;;;;;;2.42;1.08;;;;;;;;;;5101250;27;20040;-61
2023/10/19 06:18:51;;;;;;;1.70;1.10;;;;;;;;;;5100259;28;20032;-61
2023/10/19 06:21:20;;;;;;;2.20;1.33;;;;;;;;;;5104308;28;20093;-61
2023/10/19 06:23:46;;;;;;;1.67;1.33;;;;;;;;;;5108251;28;20047;-61
2023/10/19 06:26:12;;;;;;;1.02;0.93;;;;;;;;;;5103691;28;20047;-61
2023/10/19 06:28:40;;;;;;;1.83;1.13;;;;;;;;;;5099213;28;20065;-61
2023/10/19 06:31:07;;;;;;;1.70;1.08;;;;;;;;;;5082512;28;20055;-61
2023/10/19 06:33:33;;;;;;;2.05;1.42;;;;;;;;;;5080463;28;20121;-61
2023/10/19 06:36:03;;;;;;;1.65;1.20;;;;;;;;;;5106153;28;20035;-61
2023/10/19 06:38:29;;;;;;;1.50;1.08;;;;;;;;;;5089720;28;20043;-61
2023/10/19 06:40:56;;;;;;;1.77;1.20;;;;;;;;;;5108140;28;20031;-61
2023/10/19 06:43:25;;;;;;;1.65;1.13;;;;;;;;;;5102139;28;20043;-60
2023/10/19 06:45:52;;;;;;;1.83;1.05;;;;;;;;;;5107719;27;20071;-61
2023/10/19 06:48:18;;;;;;;2.42;1.25;;;;;;;;;;5106395;28;20194;-61
2023/10/19 06:50:45;;;;;;;1.60;1.10;;;;;;;;;;5091607;28;20329;-61
2023/10/19 06:53:11;;;;;;;2.58;1.30;;;;;;;;;;5096879;28;20050;-60
2023/10/19 06:55:37;;;;;;;1.67;1.10;;;;;;;;;;5103084;28;20329;-61
2023/10/19 06:58:04;;;;;;;2.83;1.20;;;;;;;;;;5098757;27;20046;-61
2023/10/19 07:00:30;;;;;;;1.55;1.40;;;;;;;;;;5086929;27;20042;-61
2023/10/19 07:03:00;;;;;;;1.83;1.10;;;;;;;;;;5105395;28;20180;-61
2023/10/19 07:05:29;;;;;;;2.58;1.33;;;;;;;;;;5090809;28;20126;-61
2023/10/19 07:07:56;;;;;;;1.75;1.10;;;;;;;;;;5078746;28;20479;-61
2023/10/19 07:10:23;;;;;;;2.53;0.95;;;;;;;;;;5099821;27;20059;-61
2023/10/19 07:12:56;;;;;;;1.40;0.95;;;;;;;;;;5099744;28;20051;-61
2023/10/19 07:15:25;;;;;;;1.08;0.90;;;;;;;;;;5105431;28;20043;-61
2023/10/19 07:17:54;;;;;;;1.70;1.10;;;;;;;;;;5102464;28;20035;-61
2023/10/19 07:20:32;;;;;;;1.25;0.93;;;;;;;;;;5101425;28;20066;-61
2023/10/19 07:23:05;;;;;;;2.38;1.30;;;;;;;;;;5106766;28;20054;-60
2023/10/19 07:25:31;;;;;;;1.55;1.00;;;;;;;;;;5098588;28;20048;-61
2023/10/19 07:27:59;;;;;;;1.88;1.38;;;;;;;;;;5078149;28;20132;-61
2023/10/19 07:30:28;;;;;;;1.27;0.82;;;;;;;;;;5100479;28;20499;-61
2023/10/19 07:32:58;;;;;;;1.35;0.93;;;;;;;;;;5100134;28;20052;-61
2023/10/19 07:35:27;;;;;;;1.33;1.00;;;;;;;;;;5101532;28;20039;-61
2023/10/19 07:37:54;;;;;;;0.98;0.85;;;;;;;;;;5098734;28;20071;-60
2023/10/19 07:40:20;;;;;;;2.15;1.20;;;;;;;;;;5104906;28;20043;-60
2023/10/19 07:42:48;;;;;;;1.55;1.05;;;;;;;;;;5109551;28;20035;-60
2023/10/19 07:45:15;;;;;;;1.70;1.10;;;;;;;;;;5088106;28;20043;-61
2023/10/19 07:47:41;;;;;;;1.25;0.90;;;;;;;;;;5100639;27;20555;-60
2023/10/19 07:50:18;;;;;;;0.98;0.82;;;;;;;;;;5080486;28;20039;-59
2023/10/19 07:52:47;;;;;;;1.20;0.80;;;;;;;;;;5103083;28;20511;-60
2023/10/19 07:55:13;;;;;;;0.82;0.80;;;;;;;;;;5105557;27;20142;-60
2023/10/19 07:57:42;;;;;;;1.52;1.00;;;;;;;;;;5082230;28;20036;-61
2023/10/19 08:00:09;;;;;;;0.93;0.85;;;;;;;;;;5101285;28;20406;-60
2023/10/19 08:02:37;;;;;;;1.67;0.95;;;;;;;;;;5106727;27;20038;-61
2023/10/19 08:05:06;;;;;;;0.95;0.80;;;;;;;;;;5097543;28;20047;-60
2023/10/19 08:07:34;;;;;;;1.98;1.05;;;;;;;;;;5056392;28;20493;-60
2023/10/19 08:10:00;;;;;;;1.55;1.10;;;;;;;;;;5101109;28;20057;-60
2023/10/19 08:12:27;;;;;;;1.83;1.30;;;;;;;;;;5092013;28;20044;-60
2023/10/19 08:14:55;;;;;;;1.15;0.90;;;;;;;;;;5107430;27;20039;-61
2023/10/19 08:17:21;;;;;;;1.40;0.90;;;;;;;;;;5109599;27;20039;-60
2023/10/19 08:19:48;;;;;;;2.70;1.20;;;;;;;;;;5090827;28;20382;-60
2023/10/19 08:22:14;;;;;;;1.27;1.02;;;;;;;;;;5106939;28;20131;-60
2023/10/19 08:24:43;;;;;;;1.33;1.00;;;;;;;;;;5108048;28;20031;-60
2023/10/19 08:27:12;;;;;;;1.38;1.08;;;;;;;;;;5099505;28;20097;-61
2023/10/19 08:29:39;;;;;;;1.58;1.00;;;;;;;;;;5110715;27;20035;-61
2023/10/19 08:32:06;;;;;;;3.78;1.23;;;;;;;;;;5111666;27;20039;-60
2023/10/19 08:34:36;;;;;;;1.88;1.10;;;;;;;;;;5106495;28;20055;-61
2023/10/19 08:37:02;;;;;;;1.17;1.05;;;;;;;;;;5110510;28;20082;-61
2023/10/19 08:39:35;;;;;;;1.40;1.15;;;;;;;;;;5109080;28;20071;-61
2023/10/19 08:42:02;;;;;;;1.65;1.10;;;;;;;;;;5096608;28;20119;-60
2023/10/19 08:44:28;;;;;;;3.05;1.40;;;;;;;;;;5108240;28;20043;-60
2023/10/19 08:46:54;;;;;;;1.00;0.80;;;;;;;;;;5089527;28;20040;-62
2023/10/19 08:49:22;;;;;;;1.52;0.90;;;;;;;;;;5105179;28;20040;-60
2023/10/19 08:51:48;;;;;;;2.50;0.82;;;;;;;;;;5097953;28;20043;-61
2023/10/19 08:54:15;;;;;;;1.88;1.10;;;;;;;;;;5110436;27;20118;-61
2023/10/19 08:56:41;;;;;;;1.67;1.02;;;;;;;;;;5099038;28;20078;-60
2023/10/19 08:59:10;;;;;;;1.75;1.00;;;;;;;;;;5107111;27;20097;-61
2023/10/19 09:01:37;;;;;;;2.17;1.20;;;;;;;;;;5100129;28;20114;-60
2023/10/19 09:04:05;;;;;;;1.02;0.90;;;;;;;;;;5102938;27;20047;-60
2023/10/19 09:06:32;;;;;;;1.88;1.00;;;;;;;;;;5101159;28;20135;-60
2023/10/19 09:08:58;;;;;;;1.63;1.10;;;;;;;;;;5100453;28;20059;-60
2023/10/19 09:11:24;;;;;;;2.25;1.52;;;;;;;;;;5105580;28;20127;-61
2023/10/19 09:13:52;;;;;;;2.22;1.40;;;;;;;;;;5107718;27;20059;-61
2023/10/19 09:16:19;;;;;;;2.33;1.30;;;;;;;;;;5103539;28;20086;-61
2023/10/19 09:18:46;;;;;;;1.75;1.17;;;;;;;;;;5102921;28;20043;-61
2023/10/19 09:21:23;;;;;;;2.65;1.10;;;;;;;;;;5107094;28;20044;-60
2023/10/19 09:23:51;;;;;;;1.23;1.00;;;;;;;;;;5110105;28;20474;-61
2023/10/19 09:26:18;;;;;;;2.58;1.10;;;;;;;;;;5095877;28;20585;-61
2023/10/19 09:28:50;;;;;;;1.02;0.90;;;;;;;;;;5097600;28;20031;-60
2023/10/19 09:31:16;;;;;;;0.63;0.63;;;;;;;;;;5097016;28;20047;-61
2023/10/19 09:33:45;;;;;;;1.15;1.00;;;;;;;;;;5096669;28;20044;-61
2023/10/19 09:36:15;;;;;;;1.40;1.15;;;;;;;;;;5095895;28;20047;-61
2023/10/19 09:38:44;;;;;;;4.40;1.48;;;;;;;;;;5100208;28;20036;-61
2023/10/19 09:41:12;;;;;;;2.45;1.13;;;;;;;;;;5105195;27;20118;-61
2023/10/19 09:43:42;;;;;;;1.90;1.25;;;;;;;;;;5105506;27;20043;-61
2023/10/19 09:46:09;;;;;;;1.67;1.10;;;;;;;;;;5103704;28;20060;-60
2023/10/19 09:48:47;;;;;;;2.15;1.30;;;;;;;;;;5097193;28;20126;-60
2023/10/19 09:51:13;;;;;;;4.10;1.70;;;;;;;;;;5104827;28;20552;-60
2023/10/19 09:53:40;;;;;;;2.28;1.40;;;;;;;;;;5102330;28;20596;-61
2023/10/19 09:56:07;;;;;;;1.42;1.10;;;;;;;;;;5098662;28;20119;-61
2023/10/19 09:58:43;;;;;;;3.05;1.88;;;;;;;;;;5096941;27;20100;-61
2023/10/19 10:01:12;;;;;;;2.38;1.30;;;;;;;;;;5096897;28;20118;-60
2023/10/19 10:03:51;;;;;;;1.95;1.48;;;;;;;;;;5106356;28;20078;-61
2023/10/19 10:06:30;;;;;;;1.73;1.25;;;;;;;;;;5105391;28;20070;-61
2023/10/19 10:08:58;;;;;;;2.35;1.48;;;;;;;;;;5099446;28;20047;-61
2023/10/19 10:11:26;;;;;;;3.00;1.35;;;;;;;;;;5096673;27;20044;-61
2023/10/19 10:13:53;;;;;;;1.88;1.33;;;;;;;;;;5107647;27;20032;-61
2023/10/19 10:16:20;;;;;;;2.75;1.48;;;;;;;;;;5101452;27;20367;-61
2023/10/19 10:18:48;;;;;;;2.65;1.30;;;;;;;;;;5097711;27;20040;-61
2023/10/19 10:21:18;;;;;;;2.15;1.30;;;;;;;;;;5102890;27;20070;-61
2023/10/19 10:23:46;;;;;;;2.42;1.35;;;;;;;;;;5096285;28;20039;-61
2023/10/19 10:26:13;;;;;;;2.70;1.50;;;;;;;;;;5098032;28;20051;-61
2023/10/19 10:28:40;;;;;;;3.30;1.50;;;;;;;;;;5104965;27;20050;-61
2023/10/19 10:31:21;;;;;;;1.48;1.27;;;;;;;;;;5099918;28;20062;-61
2023/10/19 10:33:47;;;;;;;2.08;1.17;;;;;;;;;;5085077;28;20096;-61
2023/10/19 10:36:14;;;;;;;2.30;1.55;;;;;;;;;;5094795;28;20430;-60
2023/10/19 10:38:41;;;;;;;2.03;1.30;;;;;;;;;;5112031;27;20863;-60
2023/10/19 10:41:09;;;;;;;2.67;1.90;;;;;;;;;;5095320;28;20040;-61
2023/10/19 10:43:49;;;;;;;2.42;1.52;;;;;;;;;;5102640;28;20416;-61
2023/10/19 10:46:16;;;;;;;2.28;1.60;;;;;;;;;;5098037;28;20491;-61
2023/10/19 10:48:42;;;;;;;1.88;1.40;;;;;;;;;;5100997;28;20054;-61
2023/10/19 10:51:16;;;;;;;4.63;1.88;;;;;;;;;;5071905;28;20895;-61
2023/10/19 10:53:42;;;;;;;2.80;1.40;;;;;;;;;;5105524;27;20585;-61
2023/10/19 10:56:08;;;;;;;2.28;1.63;;;;;;;;;;5108656;27;20046;-62
2023/10/19 10:58:34;;;;;;;2.88;1.65;;;;;;;;;;5093594;28;20078;-61
2023/10/19 11:01:00;;;;;;;3.55;1.67;;;;;;;;;;5076919;28;20067;-61
2023/10/19 11:03:29;;;;;;;4.75;2.08;;;;;;;;;;5073651;28;20071;-61
2023/10/19 11:05:56;;;;;;;2.03;1.48;;;;;;;;;;5105133;27;20349;-61
2023/10/19 11:08:24;;;;;;;1.88;1.38;;;;;;;;;;5094953;28;20039;-61
2023/10/19 11:10:52;;;;;;;3.10;1.50;;;;;;;;;;5048207;28;20507;-61
2023/10/19 11:13:23;;;;;;;1.85;1.50;;;;;;;;;;5103856;27;20406;-61
2023/10/19 11:15:51;;;;;;;3.58;1.55;;;;;;;;;;5099753;28;20568;-61
2023/10/19 11:18:32;;;;;;;3.58;1.90;;;;;;;;;;5100514;28;20521;-61
2023/10/19 11:21:04;;;;;;;2.35;1.52;;;;;;;;;;5103764;28;20759;-61
2023/10/19 11:23:36;;;;;;;4.40;1.98;;;;;;;;;;5096807;28;20055;-61
2023/10/19 11:26:04;;;;;;;3.72;1.88;;;;;;;;;;5099511;28;20538;-61
2023/10/19 11:28:31;;;;;;;2.83;1.92;;;;;;;;;;5103009;28;20208;-61
2023/10/19 11:31:23;;;;;;;2.90;1.88;;;12.80;89.80;;;;;;5097553;28;20079;-61
2023/10/19 11:33:50;;;;;;;3.60;2.05;;;12.60;99.10;;;;;;5101434;28;20062;-61
2023/10/19 11:36:20;;;;;;;3.78;2.38;;;12.60;99.10;;;;;;5098562;28;20044;-61
2023/10/19 11:38:51;;;;;;;3.33;1.88;;;12.50;99.10;;;;;;5103206;28;20066;-61
2023/10/19 11:41:17;;;;;;;4.82;1.70;;;12.50;99.10;;;;;;5095280;28;20036;-62
2023/10/19 11:43:45;;;;;;;3.53;1.73;;;12.50;99.10;;;;;;5093170;28;20704;-61
2023/10/19 11:46:11;;;;;;;2.40;1.67;;;12.60;99.10;;;;;;5102294;28;20084;-61
2023/10/19 11:48:39;;;;;;;4.22;1.95;;;12.60;99.10;;;;;;5103896;28;20039;-61
2023/10/19 11:51:06;;;;;;;3.42;1.60;;;12.60;99.10;;;;;;5091518;28;20048;-61
2023/10/19 11:53:34;;;;;;;4.20;2.05;;;12.60;99.20;;;;;;5103842;28;20043;-61
2023/10/19 11:56:04;;;;;;;4.65;2.03;;;12.60;99.20;;;;;;5100822;28;20040;-61
2023/10/19 11:58:32;;;;;;;3.55;1.90;;;12.60;99.20;;;;;;5058190;28;20503;-62
2023/10/19 12:00:59;;;;;;;3.67;2.25;;;12.70;99.30;;;;;;5091475;28;20504;-62
2023/10/19 12:03:25;;;;;;;5.80;2.58;;;12.70;99.30;;;;;;5097106;28;20121;-61
2023/10/19 12:05:55;;;;;;;3.78;2.30;;;12.70;99.30;;;;;;5095432;28;20043;-61
2023/10/19 12:08:20;;;;;;;3.90;2.17;;;12.70;99.30;;;;;;5098072;28;20139;-61
2023/10/19 12:10:47;;;;;;;5.35;2.45;;;12.70;99.30;;;;;;5106189;28;20035;-61
2023/10/19 12:13:13;;;;;;;3.72;2.42;;;12.70;99.30;;;;;;5080330;28;20745;-61
2023/10/19 12:15:38;;;;;;;3.00;1.92;;;12.70;99.30;;;;;;5095390;28;20043;-61
2023/10/19 12:18:05;;;;;;;3.00;2.20;;;12.80;99.40;;;;;;5104127;28;20130;-61
2023/10/19 12:20:31;;;;;;;3.28;2.05;;;12.80;99.40;;;;;;5098821;28;20044;-61
2023/10/19 12:22:58;;;;;;;3.28;2.15;;;12.80;99.40;;;;;;5077929;28;20039;-61
2023/10/19 12:25:31;;;;;;;3.58;2.22;;;12.80;99.40;;;;;;5097111;28;20051;-61
2023/10/19 12:28:01;;;;;;;4.15;2.53;;;12.80;99.40;;;;;;5097619;27;20518;-61
2023/10/19 12:30:31;;;;;;;2.50;1.92;;;12.80;99.70;;;;;;5103285;28;20126;-61
2023/10/19 12:33:01;;;;;;;3.72;2.15;;;12.70;99.40;;;;;;5108831;28;20538;-61
2023/10/19 12:35:45;;;;;;;4.32;2.00;;;12.80;99.50;;;;;;5087254;28;20039;-61
2023/10/19 12:38:16;;;;;;;3.33;2.20;;;12.90;99.50;;;;;;5107141;27;20447;-61
2023/10/19 12:40:46;;;;;;;4.70;2.35;;;12.80;99.50;;;;;;5082309;28;20074;-61
2023/10/19 12:43:12;;;;;;;3.22;2.17;;;;;;;;;;5104316;28;20051;-61
2023/10/19 12:45:38;;;;;;;3.55;2.40;;;;;;;;;;5106986;27;20409;-62
2023/10/19 12:48:05;;;;;;;4.35;1.90;;;;;;;;;;5101865;28;20047;-61
2023/10/19 12:50:32;;;;;;;3.10;2.05;;;;;;;;;;5103876;28;20536;-61
2023/10/19 12:52:58;;;;;;;3.17;2.00;;;;;;;;;;5085504;28;20487;-61
2023/10/19 12:55:27;;;;;;;5.13;2.42;;;;;;;;;;5103762;27;20119;-61
2023/10/19 12:57:53;;;;;;;3.83;2.10;;;;;;;;;;5097444;28;20031;-61
2023/10/19 13:00:26;;;;;;;2.80;1.55;;;;;;;;;;5095670;28;20131;-61
2023/10/19 13:02:59;;;;;;;2.53;1.73;;;;;;;;;;5109802;28;20038;-61
2023/10/19 13:05:26;;;;;;;4.30;1.88;;;;;;;;;;5103486;28;20538;-61
2023/10/19 13:07:53;;;;;;;3.00;2.13;;;;;;;;;;5108033;28;20114;-60
2023/10/19 13:10:19;;;;;;;4.13;2.25;;;;;;;;;;5099214;27;20122;-60
2023/10/19 13:12:46;;;;;;;3.40;2.15;;;;;;;;;;5095729;28;20406;-60
2023/10/19 13:15:15;;;;;;;4.20;2.22;;;;;;;;;;5106869;27;20519;-60
2023/10/19 13:17:42;;;;;;;3.85;2.10;;;;;;;;;;5108356;28;20471;-60
2023/10/19 13:20:18;;;;;;;3.70;2.38;;;12.80;99.60;;;;;;5103615;28;20512;-60
2023/10/19 13:22:45;;;;;;;4.47;2.28;;;12.90;99.90;;;;;;5109602;28;20054;-60
2023/10/19 13:25:16;;;;;;;4.85;2.30;;;12.90;99.90;;;;;;5113106;27;20052;-60
2023/10/19 13:27:46;;;;;;;3.42;2.10;;;12.90;99.90;;;;;;5092606;28;20127;-61
2023/10/19 13:30:12;;;;;;;4.18;2.45;;;12.90;99.90;;;;;;5109305;28;20122;-60
2023/10/19 13:32:38;;;;;;;4.50;2.47;;;12.90;99.90;;;;;;5090940;28;20050;-61
2023/10/19 13:35:05;;;;;;;3.58;2.47;;;;;;;;;;5107684;28;20039;-59
2023/10/19 13:37:31;;;;;;;4.03;2.20;;;;;;;;;;5109928;28;20039;-61
2023/10/19 13:39:58;;;;;;;3.13;2.35;;;;;;;;;;5111523;27;20559;-61
2023/10/19 13:42:25;;;;;;;3.85;3.00;;;;;;;;;;5110826;27;20110;-61
2023/10/19 13:44:51;;;;;;;5.22;2.70;;;;;;;;;;5103168;28;20198;-61
2023/10/19 13:47:17;;;;;;;5.38;3.30;;;;;;;;;;5108400;28;20078;-61
2023/10/19 13:49:43;;;;;;;6.72;2.42;;;;;;;;;;5091138;28;20475;-60
2023/10/19 13:52:09;;;;;;;5.10;2.40;;;;;;;;;;5109687;28;20100;-60
2023/10/19 13:54:36;;;;;;;5.63;3.38;;;;;;;;;;5114252;27;20065;-61
2023/10/19 13:57:02;;;;;;;4.95;2.85;;;;;;;;;;5100666;27;20064;-60
2023/10/19 13:59:29;;;;;;;4.60;3.20;;;;;;;;;;5085354;28;20251;-60
2023/10/19 14:01:55;;;;;;;7.40;4.10;;;;;;;;;;5096388;28;20043;-60
2023/10/19 14:04:23;;;;;;;6.22;2.63;;;;;;;;;;5099218;28;20406;-61
2023/10/19 14:06:50;;;;;;;6.10;3.30;;;;;;;;;;5093916;28;20043;-61
2023/10/19 14:09:17;;;;;;;6.80;3.20;;;;;;;;;;5106662;28;20123;-61
2023/10/19 14:11:47;;;;;;;5.30;3.38;;;;;;;;;;5119165;27;20078;-61
2023/10/19 14:14:13;;;;;;;5.78;3.38;;;;;;;;;;5104189;27;20475;-61
2023/10/19 14:16:39;;;;;;;4.93;3.45;;;;;;;;;;5109522;27;20034;-61
2023/10/19 14:19:05;;;;;;;6.65;4.32;;;;;;;;;;5112173;27;20039;-61
2023/10/19 14:21:37;;;;;;;6.88;4.03;;;;;;;;;;5108878;28;20043;-61
2023/10/19 14:24:04;;;;;;;5.90;4.00;;;;;;;;;;5108434;28;20096;-61
2023/10/19 14:26:30;;;;;;;4.13;3.17;;;;;;;;;;5116065;27;20143;-61
2023/10/19 14:28:57;;;;;;;5.10;3.47;;;;;;;;;;5103268;28;20043;-61
2023/10/19 14:31:23;;;;;;;6.18;3.55;;;;;;;;;;5108260;28;20210;-61
2023/10/19 14:33:49;;;;;;;7.88;4.50;;;;;;;;;;5089023;28;20088;-60
2023/10/19 14:36:15;;;;;;;9.02;4.03;;;;;;;;;;5108371;28;20543;-61
2023/10/19 14:38:43;;;;;;;7.90;3.88;;;;;;;;;;5095826;28;20100;-61
2023/10/19 14:41:09;;;;;;;5.28;4.45;;;;;;;;;;5106247;27;20040;-60
2023/10/19 14:43:35;;;;;;;7.28;4.32;;;;;;;;;;5109489;28;20494;-60
2023/10/19 14:46:01;;;;;;;5.70;4.30;;;;;;;;;;5102256;28;20100;-61
2023/10/19 14:48:28;;;;;;;5.10;3.80;;;;;;;;;;5098606;28;20067;-61
2023/10/19 14:50:57;;;;;;;5.85;3.85;;;;;;;;;;5102621;28;20044;-61
2023/10/19 14:53:24;;;;;;;5.38;3.88;;;;;;;;;;5096742;28;20059;-61
2023/10/19 14:55:51;;;;;;;4.78;3.55;;;;;;;;;;5104444;28;20156;-61